Weather at San Francisco International Airport

Public forecast

Using degrees Fahrenheit for public forecast. Weather courtesy of forecast.io.

Current aviation weather report (METAR) for San Francisco International Airport

Retrieved 2020/11/28 18:56 UTC (28 minutes ago):

KSFO 281856Z 09003KT 10SM CLR 13/02 A3028 RMK AO2 SLP254 T01330022

Aviation forecast (TAF) for San Francisco International Airport

Retrieved 2020/11/28 18:27 UTC (57 minutes ago):

TAF KSFO 281725Z 2818/2924 VRB03KT P6SM FEW200 FM282200 34005KT P6SM SKC FM290100 31007KT P6SM SKC FM290500 VRB03KT P6SM SKC FM292200 31008KT P6SM SKC